createdAt,value
2018-04-23T00:02:17.335Z,60.50
2018-04-23T00:04:45.778Z,60.40
2018-04-23T00:07:13.672Z,60.30
2018-04-23T00:09:42.063Z,60.20
2018-04-23T00:12:09.825Z,60.10
2018-04-23T00:14:37.590Z,60.30
2018-04-23T00:17:05.961Z,60.10
2018-04-23T00:19:34.289Z,60.00
2018-04-23T00:22:02.428Z,60.00
2018-04-23T00:24:30.084Z,60.10
2018-04-23T00:26:58.689Z,60.00
2018-04-23T00:29:26.295Z,60.00
2018-04-23T00:31:54.540Z,60.20
2018-04-23T00:34:22.247Z,60.20
2018-04-23T00:36:49.915Z,60.40
2018-04-23T00:39:17.631Z,60.60
2018-04-23T00:41:46.111Z,60.60
2018-04-23T00:44:13.833Z,60.40
2018-04-23T00:46:42.294Z,60.50
2018-04-23T00:49:10.645Z,60.40
2018-04-23T00:51:40.249Z,60.30
2018-04-23T00:54:08.773Z,60.50
2018-04-23T00:56:36.411Z,60.40
2018-04-23T00:59:04.857Z,60.60
2018-04-23T01:01:33.978Z,60.80
2018-04-23T01:04:01.704Z,60.60
2018-04-23T01:06:29.403Z,60.80
2018-04-23T01:08:57.198Z,60.70
2018-04-23T01:11:25.372Z,60.70
2018-04-23T01:13:53.016Z,60.50
2018-04-23T01:16:20.682Z,60.80
2018-04-23T01:18:49.121Z,61.00
2018-04-23T01:21:16.830Z,61.00
2018-04-23T01:23:44.642Z,60.80
2018-04-23T01:26:12.373Z,60.90
2018-04-23T01:28:40.856Z,61.10
2018-04-23T01:31:08.494Z,60.90
2018-04-23T01:33:36.155Z,61.00
2018-04-23T01:36:03.783Z,61.20
2018-04-23T01:38:32.436Z,61.50
2018-04-23T01:41:00.121Z,61.50
2018-04-23T01:43:27.740Z,61.60
2018-04-23T01:45:56.163Z,61.70
2018-04-23T01:48:23.800Z,61.60
2018-04-23T01:50:52.689Z,61.60
2018-04-23T01:53:20.445Z,61.70
2018-04-23T01:55:49.504Z,61.50
2018-04-23T01:58:17.145Z,61.30
2018-04-23T02:00:45.226Z,61.30
2018-04-23T02:03:14.622Z,61.20
2018-04-23T02:05:42.998Z,61.60
2018-04-23T02:08:11.383Z,62.50
2018-04-23T02:10:40.017Z,61.50
2018-04-23T03:34:33.408Z,62.50
2018-04-23T03:37:01.051Z,62.40
2018-04-23T03:39:28.717Z,63.30
2018-04-23T03:41:57.197Z,62.40
2018-04-23T03:44:25.532Z,62.40
2018-04-23T03:46:53.283Z,62.50
2018-04-23T03:49:22.451Z,62.30
2018-04-23T03:51:50.153Z,62.30
2018-04-23T03:54:17.821Z,62.30
2018-04-23T03:56:45.451Z,62.30
2018-04-23T03:59:13.838Z,62.10
2018-04-23T04:01:42.262Z,61.80
2018-04-23T04:04:09.870Z,61.80
2018-04-23T04:06:38.753Z,61.80
2018-04-23T04:09:06.503Z,61.70
2018-04-23T04:11:35.673Z,61.60
2018-04-23T04:14:16.001Z,62.40
2018-04-23T04:16:57.850Z,61.60
2018-04-23T04:19:26.381Z,61.80
2018-04-23T04:21:54.153Z,61.60
2018-04-23T04:24:23.122Z,61.90
2018-04-23T04:26:50.946Z,61.90
2018-04-23T04:29:18.620Z,61.90
2018-04-23T04:31:47.891Z,61.60
2018-04-23T04:34:17.220Z,61.60
2018-04-23T04:36:50.090Z,61.40
2018-04-23T04:39:23.960Z,61.30
2018-04-23T04:41:52.054Z,61.30
2018-04-23T04:44:19.713Z,61.20
2018-04-23T04:46:47.392Z,61.40
2018-04-23T04:49:16.394Z,61.60
2018-04-23T04:51:44.833Z,61.70
2018-04-23T04:54:12.726Z,61.70
2018-04-23T04:56:40.421Z,62.10
2018-04-23T04:59:08.152Z,62.10
2018-04-23T05:01:35.927Z,62.30
2018-04-23T05:04:03.640Z,62.30
2018-04-23T05:06:32.474Z,62.60
2018-04-23T05:09:00.159Z,62.60
2018-04-23T05:11:28.571Z,62.10
2018-04-23T05:14:02.911Z,62.10
2018-04-23T05:16:30.585Z,61.90
2018-04-23T05:18:58.327Z,61.70
2018-04-23T05:22:06.561Z,61.70
2018-04-23T05:24:36.665Z,61.50
2018-04-23T05:27:04.377Z,61.70
2018-04-23T05:29:33.199Z,61.70
2018-04-23T05:32:02.693Z,61.60
2018-04-23T05:34:30.867Z,61.40
2018-04-23T05:36:59.239Z,61.50
2018-04-23T05:39:26.916Z,61.40
2018-04-23T05:41:55.109Z,61.40
2018-04-23T05:44:24.088Z,61.40
2018-04-23T05:46:52.547Z,61.20
2018-04-23T05:49:20.827Z,61.00
2018-04-23T05:51:49.065Z,61.20
2018-04-23T05:54:16.798Z,61.20
2018-04-23T05:56:45.183Z,61.00
2018-04-23T05:59:14.269Z,60.80
2018-04-23T06:01:43.131Z,60.90
2018-04-23T06:04:12.963Z,61.10
2018-04-23T06:06:41.371Z,61.00
2018-04-23T06:09:09.186Z,61.20
2018-04-23T06:11:36.823Z,61.20
2018-04-23T06:14:05.306Z,61.30
2018-04-23T06:16:33.009Z,61.20
2018-04-23T06:19:01.609Z,61.40
2018-04-23T06:21:30.101Z,61.50
2018-04-23T06:24:00.005Z,61.50
2018-04-23T06:26:27.741Z,61.30
2018-04-23T06:28:55.397Z,61.40
2018-04-23T06:31:23.785Z,61.20
2018-04-23T06:33:52.161Z,61.40
2018-04-23T06:36:19.748Z,61.20
2018-04-23T06:38:48.135Z,60.80
2018-04-23T06:41:16.683Z,60.70
2018-04-23T06:43:44.343Z,60.40
2018-04-23T06:46:12.057Z,59.90
2018-04-23T06:48:39.843Z,59.80
2018-04-23T06:51:07.462Z,59.80
2018-04-23T06:53:35.693Z,59.70
2018-04-23T06:56:03.362Z,59.80
2018-04-23T06:58:31.086Z,59.80
2018-04-23T07:00:58.710Z,59.80
2018-04-23T07:03:29.089Z,60.00
2018-04-23T07:05:56.777Z,59.90
2018-04-23T07:08:24.768Z,60.00
2018-04-23T07:10:53.201Z,60.00
2018-04-23T07:13:20.827Z,60.10
2018-04-23T07:15:48.447Z,59.90
2018-04-23T07:18:17.067Z,59.90
2018-04-23T07:20:45.536Z,59.60
2018-04-23T07:23:13.954Z,59.70
2018-04-23T07:25:41.549Z,59.50
2018-04-23T07:28:09.223Z,59.80
2018-04-23T07:30:36.994Z,59.50
2018-04-23T07:33:04.695Z,59.20
2018-04-23T07:35:33.347Z,59.10
2018-04-23T07:38:01.037Z,58.80
2018-04-23T07:40:29.673Z,58.40
2018-04-23T07:42:57.316Z,58.10
2018-04-23T07:45:24.993Z,57.90
2018-04-23T07:47:53.098Z,58.10
2018-04-23T07:50:20.727Z,58.30
2018-04-23T07:52:49.839Z,57.70
2018-04-23T07:55:19.149Z,57.60
2018-04-23T07:57:47.621Z,58.10
2018-04-23T08:00:15.318Z,57.40
2018-04-23T08:02:43.747Z,57.60
2018-04-23T08:05:11.464Z,57.50
2018-04-23T08:07:39.183Z,57.50
2018-04-23T08:10:06.924Z,57.90
2018-04-23T08:12:34.573Z,58.10
2018-04-23T08:15:03.360Z,57.30
2018-04-23T08:17:32.543Z,57.80
2018-04-23T08:20:00.666Z,57.70
2018-04-23T08:22:28.274Z,56.60
2018-04-23T08:24:56.718Z,57.30
2018-04-23T08:27:24.347Z,57.30
2018-04-23T08:29:52.804Z,56.60
2018-04-23T08:32:20.561Z,56.60
2018-04-23T08:34:48.200Z,54.70
2018-04-23T08:37:15.833Z,54.80
2018-04-23T08:39:43.465Z,54.50
2018-04-23T08:42:11.105Z,54.60
2018-04-23T08:44:39.731Z,55.10
2018-04-23T08:47:08.123Z,55.00
2018-04-23T08:49:36.786Z,54.40
2018-04-23T08:52:05.176Z,54.10
2018-04-23T08:54:34.122Z,53.10
2018-04-23T08:57:02.711Z,53.10
2018-04-23T08:59:30.305Z,53.50
2018-04-23T09:01:58.098Z,54.00
2018-04-23T09:04:25.695Z,54.40
2018-04-23T09:06:53.386Z,54.50
2018-04-23T09:09:21.742Z,54.40
2018-04-23T09:11:50.250Z,54.10
2018-04-23T09:14:17.850Z,54.40
2018-04-23T09:16:46.457Z,53.50
2018-04-23T09:19:14.795Z,53.40
2018-04-23T09:21:43.098Z,53.70
2018-04-23T09:24:10.738Z,53.50
2018-04-23T09:26:38.549Z,53.50
2018-04-23T09:29:07.913Z,53.70
2018-04-23T09:31:35.597Z,53.30
2018-04-23T09:34:03.220Z,53.30
2018-04-23T09:36:31.727Z,52.20
2018-04-23T09:38:59.486Z,52.10
2018-04-23T09:41:28.027Z,52.10
2018-04-23T09:43:55.664Z,52.10
2018-04-23T09:46:23.269Z,52.40
2018-04-23T09:48:50.861Z,51.60
2018-04-23T09:51:18.668Z,51.10
2018-04-23T09:53:48.487Z,51.70
2018-04-23T09:56:16.148Z,51.90
2018-04-23T09:58:43.868Z,51.40
2018-04-23T10:01:18.059Z,50.80
2018-04-23T10:03:56.210Z,51.50
2018-04-23T10:06:23.924Z,51.90
2018-04-23T10:08:51.636Z,50.80
2018-04-23T10:11:20.331Z,49.80
2018-04-23T10:13:49.554Z,50.90
2018-04-23T10:16:18.034Z,50.50
2018-04-23T10:18:45.779Z,50.40
2018-04-23T10:21:13.898Z,50.80
2018-04-23T10:23:41.536Z,50.10
2018-04-23T10:26:11.452Z,51.30
2018-04-23T10:28:42.200Z,50.40
2018-04-23T10:31:11.699Z,49.30
2018-04-23T10:33:40.181Z,50.10
2018-04-23T10:36:08.694Z,49.70
2018-04-23T10:38:36.324Z,49.70
2018-04-23T10:41:04.893Z,50.20
2018-04-23T10:43:33.357Z,50.60
2018-04-23T10:46:01.521Z,49.10
2018-04-23T10:48:31.196Z,48.90
2018-04-23T10:50:58.954Z,49.50
2018-04-23T10:53:26.601Z,49.30
2018-04-23T10:55:55.294Z,48.80
2018-04-23T10:58:23.957Z,49.10
2018-04-23T11:00:51.654Z,49.10
2018-04-23T11:03:20.069Z,48.30
2018-04-23T11:05:48.462Z,48.70
2018-04-23T11:08:16.105Z,48.70
2018-04-23T11:10:44.457Z,48.10
2018-04-23T11:13:12.430Z,48.50
2018-04-23T11:15:40.199Z,47.90
2018-04-23T11:18:07.908Z,47.00
2018-04-23T11:20:35.570Z,47.80
2018-04-23T11:23:03.869Z,47.40
2018-04-23T11:25:33.250Z,47.80
2018-04-23T11:28:00.881Z,47.60
2018-04-23T11:30:30.077Z,47.30
2018-04-23T11:33:02.674Z,45.90
2018-04-23T11:35:30.299Z,46.00
2018-04-23T11:37:59.758Z,46.30
2018-04-23T11:40:27.458Z,46.30
2018-04-23T11:42:55.133Z,46.00
2018-04-23T11:45:22.783Z,45.20
2018-04-23T11:47:51.129Z,46.10
2018-04-23T11:50:18.796Z,44.50
2018-04-23T11:52:46.431Z,44.20
2018-04-23T11:55:14.922Z,45.20
2018-04-23T11:57:43.167Z,45.20
2018-04-23T12:00:10.945Z,44.80
2018-04-23T12:02:40.947Z,44.80
2018-04-23T12:05:08.685Z,44.70
2018-04-23T12:07:36.407Z,44.20
2018-04-23T12:10:04.505Z,43.40
2018-04-23T12:12:32.261Z,43.50
2018-04-23T12:15:00.091Z,44.10
2018-04-23T12:17:28.543Z,42.20
2018-04-23T12:19:56.911Z,41.90
2018-04-23T12:22:24.498Z,41.90
2018-04-23T12:24:52.130Z,43.00
2018-04-23T12:27:19.745Z,42.40
2018-04-23T12:29:47.693Z,42.20
2018-04-23T12:32:18.797Z,42.20
2018-04-23T12:34:46.463Z,43.00
2018-04-23T12:37:14.224Z,41.70
2018-04-23T12:39:42.177Z,41.90
2018-04-23T12:42:09.842Z,41.70
2018-04-23T12:44:38.156Z,41.60
2018-04-23T12:47:05.864Z,41.40
2018-04-23T12:49:33.576Z,41.50
2018-04-23T12:52:02.081Z,42.10
2018-04-23T12:54:29.808Z,42.00
2018-04-23T12:56:58.208Z,42.70
2018-04-23T12:59:25.984Z,42.10
2018-04-23T13:01:53.700Z,42.40
2018-04-23T13:04:22.965Z,43.10
2018-04-23T13:06:51.128Z,43.00
2018-04-23T13:09:19.714Z,39.50
2018-04-23T13:11:47.350Z,39.40
2018-04-23T13:14:15.706Z,39.70
2018-04-23T13:16:43.424Z,39.60
2018-04-23T13:19:11.132Z,40.60
2018-04-23T13:21:39.031Z,39.30
2018-04-23T13:24:06.627Z,39.50
2018-04-23T13:26:34.590Z,39.90
2018-04-23T13:29:02.287Z,39.10
2018-04-23T13:31:29.927Z,39.00
2018-04-23T13:33:57.604Z,38.10
2018-04-23T13:36:25.266Z,38.40
2018-04-23T13:38:53.860Z,38.00
2018-04-23T13:41:22.040Z,38.40
2018-04-23T13:43:49.729Z,38.70
2018-04-23T13:46:17.436Z,39.50
2018-04-23T13:48:45.223Z,39.10
2018-04-23T13:51:13.725Z,38.80
2018-04-23T13:53:43.844Z,38.30
2018-04-23T13:56:11.569Z,39.90
2018-04-23T13:58:40.926Z,38.70
2018-04-23T14:01:08.590Z,38.10
2018-04-23T14:03:36.231Z,38.60
2018-04-23T14:06:03.862Z,38.90
2018-04-23T14:08:31.464Z,39.10
2018-04-23T14:10:59.236Z,38.80
2018-04-23T14:13:27.686Z,38.40
2018-04-23T14:15:57.112Z,38.80
2018-04-23T14:18:25.644Z,38.70
2018-04-23T14:20:53.267Z,38.50
2018-04-23T14:23:20.954Z,37.70
2018-04-23T14:25:49.392Z,38.70
2018-04-23T14:28:17.045Z,38.20
2018-04-23T14:30:44.662Z,38.40
2018-04-23T14:33:12.858Z,38.20
2018-04-23T14:35:41.646Z,39.50
2018-04-23T14:38:10.109Z,39.50
2018-04-23T14:40:38.647Z,39.70
2018-04-23T14:43:06.370Z,39.70
2018-04-23T14:45:34.378Z,39.90
2018-04-23T14:48:02.050Z,40.50
2018-04-23T14:50:30.115Z,38.10
2018-04-23T14:52:57.871Z,38.80
2018-04-23T14:55:26.029Z,38.50
2018-04-23T14:57:53.658Z,38.70
2018-04-23T15:00:22.409Z,38.20
2018-04-23T15:02:51.061Z,39.00
2018-04-23T15:05:19.588Z,38.80
2018-04-23T15:07:47.244Z,38.60
2018-04-23T15:10:15.756Z,38.10
2018-04-23T15:12:43.469Z,36.40
2018-04-23T15:15:12.057Z,37.00
2018-04-23T15:17:39.893Z,37.80
2018-04-23T15:20:08.366Z,37.40
2018-04-23T15:22:36.070Z,37.30
2018-04-23T15:25:03.774Z,36.40
2018-04-23T15:27:32.224Z,36.70
2018-04-23T15:30:00.982Z,36.30
2018-04-23T15:32:28.638Z,36.10
2018-04-23T15:34:56.242Z,35.70
2018-04-23T15:37:24.126Z,35.60
2018-04-23T15:39:52.663Z,35.30
2018-04-23T15:42:20.256Z,35.20
2018-04-23T15:44:47.905Z,36.00
2018-04-23T15:47:15.532Z,36.60
2018-04-23T15:49:44.238Z,36.40
2018-04-23T15:52:12.649Z,36.00
2018-04-23T15:54:40.243Z,35.90
2018-04-23T15:57:07.981Z,36.50
2018-04-23T15:59:36.335Z,36.80
2018-04-23T16:02:03.955Z,36.80
2018-04-23T16:04:31.590Z,36.90
2018-04-23T16:06:59.233Z,36.60
2018-04-23T16:09:26.797Z,36.60
2018-04-23T16:11:54.759Z,36.30
2018-04-23T16:14:22.358Z,36.70
2018-04-23T16:16:49.999Z,36.90
2018-04-23T16:19:17.617Z,36.70
2018-04-23T16:21:45.321Z,37.10
2018-04-23T16:24:13.082Z,37.00
2018-04-23T16:26:40.826Z,37.30
2018-04-23T16:29:09.976Z,37.70
2018-04-23T16:31:37.961Z,37.10
2018-04-23T16:34:06.830Z,38.00
2018-04-23T16:36:35.681Z,37.80
2018-04-23T16:39:03.981Z,37.40
2018-04-23T16:41:32.166Z,37.30
2018-04-23T16:44:00.925Z,36.80
2018-04-23T16:46:28.850Z,36.80
2018-04-23T16:48:56.793Z,37.20
2018-04-23T16:51:24.775Z,37.50
2018-04-23T16:53:52.496Z,37.80
2018-04-23T16:56:20.142Z,37.20
2018-04-23T16:58:48.672Z,37.90
2018-04-23T17:01:16.289Z,37.90
2018-04-23T17:03:44.089Z,37.90
2018-04-23T17:06:12.756Z,37.80
2018-04-23T17:08:40.442Z,37.60
2018-04-23T17:11:09.961Z,37.80
2018-04-23T17:13:38.079Z,38.30
2018-04-23T17:16:05.741Z,38.40
2018-04-23T17:18:35.218Z,38.60
2018-04-23T17:21:02.825Z,38.50
2018-04-23T17:23:31.215Z,38.80
2018-04-23T17:25:59.582Z,39.00
2018-04-23T17:28:28.031Z,38.70
2018-04-23T17:30:55.630Z,38.60
2018-04-23T17:33:25.202Z,38.50
2018-04-23T17:35:53.618Z,38.30
2018-04-23T17:38:21.427Z,38.10
2018-04-23T17:40:49.102Z,38.20
2018-04-23T17:43:16.817Z,38.10
2018-04-23T17:45:45.185Z,38.30
2018-04-23T17:48:12.845Z,38.30
2018-04-23T17:50:40.444Z,38.20
2018-04-23T17:53:08.417Z,38.40
2018-04-23T17:55:36.687Z,38.50
2018-04-23T17:58:04.376Z,38.20
2018-04-23T18:00:31.965Z,38.50
2018-04-23T18:02:59.573Z,39.40
2018-04-23T18:05:27.198Z,39.10
2018-04-23T18:07:55.658Z,39.20
2018-04-23T18:10:23.293Z,39.60
2018-04-23T18:12:51.056Z,39.80
2018-04-23T18:15:18.805Z,40.20
2018-04-23T18:17:49.117Z,40.40
2018-04-23T18:20:16.792Z,40.30
2018-04-23T18:22:44.418Z,40.50
2018-04-23T18:25:12.169Z,40.90
2018-04-23T18:27:40.380Z,41.00
2018-04-23T18:30:07.988Z,41.00
2018-04-23T18:32:39.746Z,41.30
2018-04-23T18:35:07.509Z,41.50
2018-04-23T18:37:36.007Z,41.80
2018-04-23T18:40:04.675Z,42.10
2018-04-23T18:42:32.306Z,42.00
2018-04-23T18:44:59.989Z,42.20
2018-04-23T18:47:27.651Z,42.30
2018-04-23T18:49:56.161Z,42.40
2018-04-23T18:52:23.776Z,42.30
2018-04-23T18:54:51.848Z,42.40
2018-04-23T18:57:20.217Z,42.40
2018-04-23T18:59:47.866Z,42.40
2018-04-23T19:02:15.494Z,42.50
2018-04-23T19:04:43.992Z,43.20
2018-04-23T19:07:12.334Z,42.70
2018-04-23T19:09:39.980Z,42.70
2018-04-23T19:12:07.637Z,42.70
2018-04-23T19:14:35.270Z,42.80
2018-04-23T19:17:03.829Z,43.00
2018-04-23T19:19:31.493Z,43.10
2018-04-23T19:21:59.184Z,43.50
2018-04-23T19:24:26.777Z,43.80
2018-04-23T19:26:54.882Z,43.80
2018-04-23T19:29:22.669Z,44.00
2018-04-23T19:31:51.307Z,44.00
2018-04-23T19:34:21.530Z,44.30
2018-04-23T19:36:49.270Z,44.20
2018-04-23T19:39:17.007Z,44.40
2018-04-23T19:41:46.156Z,44.60
2018-04-23T19:44:15.039Z,44.70
2018-04-23T19:46:43.481Z,44.60
2018-04-23T19:49:12.494Z,44.70
2018-04-23T19:51:41.096Z,44.60
2018-04-23T19:54:09.688Z,44.80
2018-04-23T19:56:38.030Z,45.20
2018-04-23T19:59:05.701Z,45.70
2018-04-23T20:01:34.186Z,45.20
2018-04-23T20:04:03.265Z,45.40
2018-04-23T20:06:30.840Z,45.30
2018-04-23T20:08:59.760Z,45.40
2018-04-23T20:11:28.833Z,45.50
2018-04-23T20:13:56.635Z,45.50
2018-04-23T20:16:26.251Z,45.50
2018-04-23T20:18:54.787Z,45.60
2018-04-23T20:21:24.199Z,45.60
2018-04-23T20:23:51.852Z,45.50
2018-04-23T20:26:20.740Z,45.70
2018-04-23T20:28:48.864Z,45.60
2018-04-23T20:31:16.922Z,45.60
2018-04-23T20:33:45.335Z,45.70
2018-04-23T20:36:12.934Z,45.80
2018-04-23T20:38:40.576Z,45.80
2018-04-23T20:41:09.712Z,45.80
2018-04-23T20:43:38.576Z,45.90
2018-04-23T20:46:06.712Z,45.90
2018-04-23T20:48:36.535Z,46.00
2018-04-23T20:51:04.182Z,45.80
2018-04-23T20:53:33.841Z,45.90
2018-04-23T20:56:02.469Z,45.80
2018-04-23T20:58:30.098Z,46.00
2018-04-23T21:01:01.969Z,46.00
2018-04-23T21:03:30.566Z,46.00
2018-04-23T21:05:59.765Z,46.70
2018-04-23T21:08:27.584Z,46.10
2018-04-23T21:10:55.951Z,46.20
2018-04-23T21:13:26.013Z,46.70
2018-04-23T21:15:55.214Z,46.90
2018-04-23T21:18:24.164Z,46.80
2018-04-23T21:20:53.021Z,46.80
2018-04-23T21:23:21.391Z,47.00
2018-04-23T21:25:49.286Z,47.00
2018-04-23T21:28:18.427Z,47.40
2018-04-23T21:30:49.213Z,47.60
2018-04-23T21:33:18.098Z,47.70
2018-04-23T21:35:47.110Z,47.60
2018-04-23T21:38:15.686Z,47.60
2018-04-23T21:40:43.952Z,47.70
2018-04-23T21:43:11.601Z,47.70
2018-04-23T21:45:39.824Z,47.90
2018-04-23T21:48:08.871Z,48.00
2018-04-23T21:50:37.148Z,48.10
2018-04-23T21:53:04.916Z,48.40
2018-04-23T21:55:33.156Z,48.50
2018-04-23T21:58:02.919Z,48.50
2018-04-23T22:00:32.665Z,48.60
2018-04-23T22:03:01.658Z,48.50
2018-04-23T22:05:30.941Z,48.50
2018-04-23T22:08:00.484Z,48.60
2018-04-23T22:10:30.660Z,48.80
2018-04-23T22:12:58.697Z,48.70
2018-04-23T22:15:27.255Z,48.80
2018-04-23T22:17:56.128Z,49.40
2018-04-23T22:20:24.719Z,48.80
2018-04-23T22:22:53.874Z,48.90
2018-04-23T22:25:22.252Z,49.10
2018-04-23T22:27:51.809Z,49.10
2018-04-23T22:30:20.724Z,49.30
2018-04-23T22:32:49.851Z,49.10
2018-04-23T22:35:19.302Z,49.50
2018-04-23T22:37:47.131Z,49.40
2018-04-23T22:40:16.260Z,49.60
2018-04-23T22:42:46.312Z,49.70
2018-04-23T22:45:14.734Z,49.70
2018-04-23T22:47:42.848Z,49.70
2018-04-23T22:50:11.840Z,50.00
2018-04-23T22:52:39.882Z,50.00
2018-04-23T22:55:08.307Z,50.10
2018-04-23T22:57:36.629Z,50.10
2018-04-23T23:00:06.055Z,50.20
2018-04-23T23:02:34.803Z,50.40
2018-04-23T23:05:02.688Z,50.30
2018-04-23T23:07:30.262Z,50.50
2018-04-23T23:09:57.912Z,50.50
2018-04-23T23:12:25.543Z,50.60
2018-04-23T23:14:53.987Z,50.80
2018-04-23T23:17:21.653Z,50.80
2018-04-23T23:19:52.806Z,50.90
2018-04-23T23:22:21.009Z,51.00
2018-04-23T23:24:49.092Z,51.00
2018-04-23T23:27:17.683Z,51.10
2018-04-23T23:29:47.624Z,51.10
2018-04-23T23:32:15.999Z,51.10
2018-04-23T23:34:44.600Z,51.20
2018-04-23T23:37:12.889Z,51.20
2018-04-23T23:39:41.210Z,51.10
2018-04-23T23:42:09.477Z,51.20
2018-04-23T23:44:40.323Z,51.20
2018-04-23T23:47:09.187Z,51.20
2018-04-23T23:49:37.373Z,51.30
2018-04-23T23:52:05.730Z,51.30
2018-04-23T23:54:34.503Z,51.30
2018-04-23T23:57:03.343Z,51.40
2018-04-23T23:59:31.502Z,51.40
